Time,TemperatureF,DewpointF,PressureIn,WindDirection,WindDirectionDegrees,WindSpeedMPH,WindSpeedGustMPH,Humidity,HourlyPrecipIn,Conditions,Clouds,dailyrainin,SoftwareType,DateUTC
2013-12-10 00:00:00,32.2,27.3,30.15,SW,217,0.0,0.0,82,0.00,,,0.00,VWS V14.01,2013-12-10 05:00:00,
2013-12-10 00:01:00,32.2,27.3,30.15,SW,217,0.0,0.0,82,0.00,,,0.00,VWS V14.01,2013-12-10 05:01:00,
2013-12-10 00:03:00,32.2,27.3,30.15,SW,217,0.0,0.0,82,0.00,,,0.00,VWS V14.01,2013-12-10 05:03:00,
2013-12-10 00:08:00,32.2,27.6,30.16,SW,217,0.0,2.0,83,0.00,,,0.00,VWS V14.01,2013-12-10 05:08:00,
2013-12-10 00:13:00,32.0,27.7,30.17,SW,217,0.0,2.0,84,0.00,,,0.00,VWS V14.01,2013-12-10 05:13:00,
2013-12-10 00:19:00,32.0,27.7,30.16,SW,217,0.0,2.0,84,0.00,,,0.00,VWS V14.01,2013-12-10 05:19:00,
2013-12-10 00:24:00,31.8,27.2,30.15,West,279,1.0,4.0,83,0.00,,,0.00,VWS V14.01,2013-12-10 05:24:00,
2013-12-10 00:29:00,31.7,27.1,30.15,West,262,0.0,0.0,83,0.00,,,0.00,VWS V14.01,2013-12-10 05:29:00,
2013-12-10 00:34:00,31.6,27.0,30.15,WSW,252,0.0,3.0,83,0.00,,,0.00,VWS V14.01,2013-12-10 05:34:00,
2013-12-10 00:39:00,31.5,26.9,30.15,West,265,2.0,5.0,83,0.00,,,0.00,VWS V14.01,2013-12-10 05:39:00,
2013-12-10 00:44:00,31.5,26.6,30.15,SSW,199,0.0,5.0,82,0.00,,,0.00,VWS V14.01,2013-12-10 05:44:00,
2013-12-10 00:49:00,31.5,26.6,30.13,WSW,257,0.0,5.0,82,0.00,,,0.00,VWS V14.01,2013-12-10 05:49:00,
2013-12-10 00:54:00,31.4,26.5,30.12,WSW,257,0.0,5.0,82,0.00,,,0.00,VWS V14.01,2013-12-10 05:54:00,
2013-12-10 00:59:00,31.3,26.5,30.12,West,273,1.0,2.0,82,0.00,,,0.00,VWS V14.01,2013-12-10 05:59:00,
2013-12-10 01:04:00,31.2,26.6,30.14,West,273,0.0,2.0,83,0.00,,,0.00,VWS V14.01,2013-12-10 06:04:00,
2013-12-10 01:09:00,31.2,26.6,30.13,West,275,1.0,4.0,83,0.00,,,0.00,VWS V14.01,2013-12-10 06:09:00,
2013-12-10 01:14:00,31.1,26.3,30.12,WNW,292,2.0,6.0,82,0.00,,,0.00,VWS V14.01,2013-12-10 06:14:00,
2013-12-10 01:19:00,31.0,26.2,30.12,West,277,0.0,6.0,82,0.00,,,0.00,VWS V14.01,2013-12-10 06:19:00,
2013-12-10 01:24:00,31.0,26.2,30.13,NW,315,4.0,6.0,82,0.00,,,0.00,VWS V14.01,2013-12-10 06:24:00,
2013-12-10 01:29:00,31.0,26.2,30.14,West,275,3.0,4.0,82,0.00,,,0.00,VWS V14.01,2013-12-10 06:29:00,
2013-12-10 01:35:00,30.9,26.1,30.14,NW,304,1.0,5.0,82,0.00,,,0.00,VWS V14.01,2013-12-10 06:35:00,
2013-12-10 01:40:00,30.9,26.1,30.14,WSW,252,0.0,6.0,82,0.00,,,0.00,VWS V14.01,2013-12-10 06:40:00,
2013-12-10 01:45:00,30.8,26.0,30.14,West,274,1.0,6.0,82,0.00,,,0.00,VWS V14.01,2013-12-10 06:45:00,
2013-12-10 01:50:00,30.8,26.0,30.15,WSW,246,0.0,6.0,82,0.00,,,0.00,VWS V14.01,2013-12-10 06:50:00,
2013-12-10 01:55:00,30.8,25.7,30.17,West,279,0.0,6.0,81,0.00,,,0.00,VWS V14.01,2013-12-10 06:55:00,
2013-12-10 02:00:00,30.8,26.0,30.18,South,175,0.0,0.0,82,0.00,,,0.00,VWS V14.01,2013-12-10 07:00:00,
2013-12-10 02:05:00,30.8,25.7,30.18,SW,235,0.0,5.0,81,0.00,,,0.00,VWS V14.01,2013-12-10 07:05:00,
2013-12-10 02:10:00,30.9,26.1,30.19,WSW,242,0.0,5.0,82,0.00,,,0.00,VWS V14.01,2013-12-10 07:10:00,
2013-12-10 02:15:00,30.9,25.8,30.17,WSW,248,0.0,5.0,81,0.00,,,0.00,VWS V14.01,2013-12-10 07:15:00,
2013-12-10 02:20:00,30.8,25.7,30.17,SSW,193,0.0,5.0,81,0.00,,,0.00,VWS V14.01,2013-12-10 07:20:00,
2013-12-10 02:25:00,30.8,25.7,30.17,SW,217,0.0,5.0,81,0.00,,,0.00,VWS V14.01,2013-12-10 07:25:00,
2013-12-10 02:30:00,30.7,25.6,30.17,SW,219,0.0,4.0,81,0.00,,,0.00,VWS V14.01,2013-12-10 07:30:00,
2013-12-10 02:35:00,30.7,25.3,30.18,SW,218,3.0,5.0,80,0.00,,,0.00,VWS V14.01,2013-12-10 07:35:00,
2013-12-10 02:41:00,30.7,25.6,30.18,WSW,243,3.0,5.0,81,0.00,,,0.00,VWS V14.01,2013-12-10 07:41:00,
2013-12-10 02:46:00,30.7,25.3,30.18,SW,219,3.0,6.0,80,0.00,,,0.00,VWS V14.01,2013-12-10 07:46:00,
2013-12-10 02:51:00,30.6,25.2,30.17,WSW,238,0.0,6.0,80,0.00,,,0.00,VWS V14.01,2013-12-10 07:51:00,
2013-12-10 02:56:00,30.7,25.3,30.16,SW,227,0.0,6.0,80,0.00,,,0.00,VWS V14.01,2013-12-10 07:56:00,
2013-12-10 03:01:00,30.6,25.2,30.16,SW,227,0.0,2.0,80,0.00,,,0.00,VWS V14.01,2013-12-10 08:01:00,
2013-12-10 03:06:00,30.6,25.5,30.15,WSW,238,1.0,2.0,81,0.00,,,0.00,VWS V14.01,2013-12-10 08:06:00,
2013-12-10 03:11:00,30.5,25.1,30.15,SW,233,0.0,3.0,80,0.00,,,0.00,VWS V14.01,2013-12-10 08:11:00,
2013-12-10 03:16:00,30.5,25.1,30.15,West,263,1.0,3.0,80,0.00,,,0.00,VWS V14.01,2013-12-10 08:16:00,
2013-12-10 03:21:00,30.5,25.4,30.14,WNW,294,1.0,4.0,81,0.00,,,0.00,VWS V14.01,2013-12-10 08:21:00,
2013-12-10 03:26:00,30.4,25.0,30.14,WNW,286,0.0,4.0,80,0.00,,,0.00,VWS V14.01,2013-12-10 08:26:00,
2013-12-10 03:31:00,30.4,25.3,30.14,WSW,246,4.0,4.0,81,0.00,,,0.00,VWS V14.01,2013-12-10 08:31:00,
2013-12-10 03:36:00,30.3,24.9,30.13,SW,232,1.0,4.0,80,0.00,,,0.00,VWS V14.01,2013-12-10 08:36:00,
2013-12-10 03:41:00,30.3,25.2,30.13,SW,232,0.0,4.0,81,0.00,,,0.00,VWS V14.01,2013-12-10 08:41:00,
2013-12-10 03:46:00,30.3,25.2,30.12,West,267,0.0,4.0,81,0.00,,,0.00,VWS V14.01,2013-12-10 08:46:00,
2013-12-10 03:52:00,30.3,25.2,30.11,WNW,289,3.0,4.0,81,0.00,,,0.00,VWS V14.01,2013-12-10 08:52:00,
2013-12-10 03:57:00,30.2,25.1,30.11,WNW,285,0.0,4.0,81,0.00,,,0.00,VWS V14.01,2013-12-10 08:57:00,
2013-12-10 04:02:00,30.1,25.0,30.11,SSW,204,0.0,0.0,81,0.00,,,0.00,VWS V14.01,2013-12-10 09:02:00,
2013-12-10 04:05:00,30.1,25.0,30.10,WNW,285,4.0,5.0,81,0.00,,,0.00,VWS V14.01,2013-12-10 09:05:00,
2013-12-10 04:10:00,30.1,25.0,30.11,WSW,241,0.0,5.0,81,0.00,,,0.00,VWS V14.01,2013-12-10 09:10:00,
2013-12-10 04:15:00,30.1,25.0,30.12,WSW,242,0.0,5.0,81,0.00,,,0.00,VWS V14.01,2013-12-10 09:15:00,
2013-12-10 04:20:00,30.1,25.0,30.14,WSW,237,0.0,5.0,81,0.00,,,0.00,VWS V14.01,2013-12-10 09:20:00,
2013-12-10 04:25:00,30.1,25.0,30.15,SW,231,1.0,5.0,81,0.00,,,0.00,VWS V14.01,2013-12-10 09:25:00,
2013-12-10 04:30:00,30.1,25.3,30.17,WSW,246,0.0,2.0,82,0.00,,,0.00,VWS V14.01,2013-12-10 09:30:00,
2013-12-10 04:35:00,30.0,24.9,30.17,SW,232,0.0,4.0,81,0.00,,,0.00,VWS V14.01,2013-12-10 09:35:00,
2013-12-10 04:40:00,29.9,24.5,30.16,SW,236,0.0,4.0,80,0.00,,,0.00,VWS V14.01,2013-12-10 09:40:00,
2013-12-10 04:45:00,29.8,24.4,30.18,SW,229,3.0,5.0,80,0.00,,,0.00,VWS V14.01,2013-12-10 09:45:00,
2013-12-10 04:50:00,29.8,24.4,30.18,SW,230,2.0,5.0,80,0.00,,,0.00,VWS V14.01,2013-12-10 09:50:00,
2013-12-10 04:56:00,29.7,24.0,30.17,SW,235,5.0,5.0,79,0.00,,,0.00,VWS V14.01,2013-12-10 09:56:00,
2013-12-10 05:01:00,29.6,23.9,30.16,WSW,238,4.0,5.0,79,0.00,,,0.00,VWS V14.01,2013-12-10 10:01:00,
2013-12-10 05:06:00,29.5,23.5,30.15,WSW,240,0.0,6.0,78,0.00,,,0.00,VWS V14.01,2013-12-10 10:06:00,
2013-12-10 05:11:00,29.4,23.4,30.14,SW,217,0.0,6.0,78,0.00,,,0.00,VWS V14.01,2013-12-10 10:11:00,
2013-12-10 05:16:00,29.4,23.4,30.12,West,277,0.0,6.0,78,0.00,,,0.00,VWS V14.01,2013-12-10 10:16:00,
2013-12-10 05:21:00,29.3,23.3,30.11,SW,219,0.0,6.0,78,0.00,,,0.00,VWS V14.01,2013-12-10 10:21:00,
2013-12-10 05:26:00,29.2,23.2,30.12,SW,218,2.0,6.0,78,0.00,,,0.00,VWS V14.01,2013-12-10 10:26:00,
2013-12-10 05:31:00,29.2,23.2,30.12,SW,218,1.0,2.0,78,0.00,,,0.00,VWS V14.01,2013-12-10 10:31:00,
2013-12-10 05:36:00,29.1,23.4,30.12,SW,218,0.0,2.0,79,0.00,,,0.00,VWS V14.01,2013-12-10 10:36:00,
2013-12-10 05:41:00,29.0,23.0,30.13,SW,218,0.0,2.0,78,0.00,,,0.00,VWS V14.01,2013-12-10 10:41:00,
2013-12-10 05:46:00,29.0,23.3,30.12,SW,218,0.0,2.0,79,0.00,,,0.00,VWS V14.01,2013-12-10 10:46:00,
2013-12-10 05:51:00,29.0,23.3,30.12,SW,218,0.0,2.0,79,0.00,,,0.00,VWS V14.01,2013-12-10 10:51:00,
2013-12-10 05:57:00,29.0,23.3,30.12,WSW,246,2.0,2.0,79,0.00,,,0.00,VWS V14.01,2013-12-10 10:57:00,
2013-12-10 06:02:00,28.8,23.1,30.10,WNW,291,2.0,4.0,79,0.00,,,0.00,VWS V14.01,2013-12-10 11:02:00,
2013-12-10 06:07:00,28.8,23.1,30.10,WNW,294,0.0,4.0,79,0.00,,,0.00,VWS V14.01,2013-12-10 11:07:00,
2013-12-10 06:12:00,28.7,23.0,30.09,WNW,294,0.0,4.0,79,0.00,,,0.00,VWS V14.01,2013-12-10 11:12:00,
2013-12-10 06:17:00,28.7,23.0,30.08,WNW,303,2.0,4.0,79,0.00,,,0.00,VWS V14.01,2013-12-10 11:17:00,
2013-12-10 06:22:00,28.6,22.6,30.08,WNW,288,0.0,4.0,78,0.00,,,0.00,VWS V14.01,2013-12-10 11:22:00,
2013-12-10 06:27:00,28.6,22.6,30.08,NW,312,0.0,5.0,78,0.00,,,0.00,VWS V14.01,2013-12-10 11:27:00,
2013-12-10 06:32:00,28.5,22.5,30.08,WNW,297,6.0,7.0,78,0.00,,,0.00,VWS V14.01,2013-12-10 11:32:00,
2013-12-10 06:37:00,28.5,22.2,30.10,West,259,2.0,7.0,77,0.00,,,0.00,VWS V14.01,2013-12-10 11:37:00,
2013-12-10 06:42:00,28.6,22.6,30.10,WNW,296,2.0,7.0,78,0.00,,,0.00,VWS V14.01,2013-12-10 11:42:00,
2013-12-10 06:47:00,28.5,22.5,30.10,WNW,297,0.0,7.0,78,0.00,,,0.00,VWS V14.01,2013-12-10 11:47:00,
2013-12-10 06:52:00,28.5,22.5,30.09,WNW,292,3.0,7.0,78,0.00,,,0.00,VWS V14.01,2013-12-10 11:52:00,
2013-12-10 06:57:00,28.5,22.5,30.08,WNW,283,3.0,7.0,78,0.00,,,0.00,VWS V14.01,2013-12-10 11:57:00,
2013-12-10 07:02:00,28.5,22.5,30.09,WNW,301,3.0,4.0,78,0.00,,,0.00,VWS V14.01,2013-12-10 12:02:00,
2013-12-10 07:08:00,28.5,22.8,30.09,WNW,292,3.0,4.0,79,0.00,,,0.00,VWS V14.01,2013-12-10 12:08:00,
2013-12-10 07:13:00,28.4,22.7,30.09,WNW,294,4.0,6.0,79,0.00,,,0.00,VWS V14.01,2013-12-10 12:13:00,
2013-12-10 07:18:00,28.4,22.7,30.09,NW,324,4.0,6.0,79,0.00,,,0.00,VWS V14.01,2013-12-10 12:18:00,
2013-12-10 07:23:00,28.3,22.9,30.09,NW,307,4.0,6.0,80,0.00,,,0.00,VWS V14.01,2013-12-10 12:23:00,
2013-12-10 07:28:00,28.1,22.7,30.09,WNW,291,2.0,6.0,80,0.00,,,0.00,VWS V14.01,2013-12-10 12:28:00,
2013-12-10 07:33:00,28.0,22.6,30.10,WNW,298,3.0,7.0,80,0.00,,,0.00,VWS V14.01,2013-12-10 12:33:00,
2013-12-10 07:38:00,28.0,22.6,30.09,NW,306,2.0,7.0,80,0.00,,,0.00,VWS V14.01,2013-12-10 12:38:00,
2013-12-10 07:43:00,28.0,22.9,30.10,West,276,2.0,7.0,81,0.00,,,0.00,VWS V14.01,2013-12-10 12:43:00,
2013-12-10 07:48:00,27.9,22.5,30.10,West,270,6.0,7.0,80,0.00,,,0.00,VWS V14.01,2013-12-10 12:48:00,
2013-12-10 07:53:00,27.9,22.5,30.10,WNW,297,4.0,9.0,80,0.00,,,0.00,VWS V14.01,2013-12-10 12:53:00,
2013-12-10 07:58:00,27.8,22.4,30.10,WNW,291,3.0,9.0,80,0.00,,,0.00,VWS V14.01,2013-12-10 12:58:00,
2013-12-10 08:03:00,27.8,22.4,30.10,NW,308,6.0,8.0,80,0.00,,,0.00,VWS V14.01,2013-12-10 13:03:00,
2013-12-10 08:08:00,27.7,21.8,30.10,NW,304,3.0,8.0,78,0.00,,,0.00,VWS V14.01,2013-12-10 13:08:00,
2013-12-10 08:13:00,27.7,22.0,30.10,NW,321,3.0,8.0,79,0.00,,,0.00,VWS V14.01,2013-12-10 13:13:00,
2013-12-10 08:19:00,27.4,22.4,30.08,NW,313,3.0,9.0,81,0.00,,,0.00,VWS V14.01,2013-12-10 13:19:00,
2013-12-10 08:24:00,27.0,22.2,30.09,WNW,301,6.0,10.0,82,0.00,,,0.00,VWS V14.01,2013-12-10 13:24:00,
2013-12-10 08:29:00,26.7,22.2,30.10,NW,305,4.0,5.0,83,0.00,,,0.00,VWS V14.01,2013-12-10 13:29:00,
2013-12-10 08:34:00,26.4,22.2,30.11,NW,307,9.0,9.0,84,0.00,,,0.00,VWS V14.01,2013-12-10 13:34:00,
2013-12-10 08:39:00,26.3,22.1,30.11,WNW,299,1.0,9.0,84,0.00,,,0.00,VWS V14.01,2013-12-10 13:39:00,
2013-12-10 08:44:00,26.2,22.0,30.11,WNW,301,2.0,9.0,84,0.00,,,0.00,VWS V14.01,2013-12-10 13:44:00,
2013-12-10 08:49:00,26.2,22.3,30.11,WNW,288,1.0,9.0,85,0.00,,,0.00,VWS V14.01,2013-12-10 13:49:00,
2013-12-10 08:54:00,26.2,22.3,30.11,WNW,282,0.0,9.0,85,0.00,,,0.00,VWS V14.01,2013-12-10 13:54:00,
2013-12-10 08:59:00,26.2,22.3,30.11,West,273,0.0,2.0,85,0.00,,,0.00,VWS V14.01,2013-12-10 13:59:00,
2013-12-10 09:04:00,26.2,22.3,30.11,WNW,288,4.0,7.0,85,0.00,,,0.00,VWS V14.01,2013-12-10 14:04:00,
2013-12-10 09:09:00,26.2,22.3,30.12,West,281,0.0,7.0,85,0.00,,,0.00,VWS V14.01,2013-12-10 14:09:00,
2013-12-10 09:14:00,26.2,22.6,30.12,WNW,292,2.0,7.0,86,0.00,,,0.00,VWS V14.01,2013-12-10 14:14:00,
2013-12-10 09:19:00,26.2,22.6,30.12,WNW,301,0.0,7.0,86,0.00,,,0.00,VWS V14.01,2013-12-10 14:19:00,
2013-12-10 09:24:00,26.2,22.6,30.12,WNW,286,0.0,7.0,86,0.00,,,0.00,VWS V14.01,2013-12-10 14:24:00,
2013-12-10 09:30:00,26.3,22.7,30.12,WNW,293,3.0,4.0,86,0.00,,,0.00,VWS V14.01,2013-12-10 14:30:00,
2013-12-10 09:35:00,26.4,23.1,30.12,WSW,246,1.0,4.0,87,0.00,,,0.00,VWS V14.01,2013-12-10 14:35:00,
2013-12-10 09:40:00,26.3,22.7,30.13,WNW,282,0.0,4.0,86,0.00,,,0.00,VWS V14.01,2013-12-10 14:40:00,
2013-12-10 09:45:00,26.3,22.7,30.13,SW,230,0.0,4.0,86,0.00,,,0.00,VWS V14.01,2013-12-10 14:45:00,
2013-12-10 09:50:00,26.1,22.8,30.13,WSW,244,0.0,4.0,87,0.00,,,0.00,VWS V14.01,2013-12-10 14:50:00,
2013-12-10 09:55:00,26.1,22.8,30.13,West,264,3.0,4.0,87,0.00,,,0.00,VWS V14.01,2013-12-10 14:55:00,
2013-12-10 10:00:00,26.0,22.9,30.13,WSW,251,0.0,0.0,88,0.00,,,0.00,VWS V14.01,2013-12-10 15:00:00,
2013-12-10 10:05:00,26.0,22.9,30.14,SW,215,0.0,1.0,88,0.00,,,0.00,VWS V14.01,2013-12-10 15:05:00,
2013-12-10 10:10:00,25.9,22.8,30.14,WNW,292,0.0,3.0,88,0.00,,,0.00,VWS V14.01,2013-12-10 15:10:00,
2013-12-10 10:15:00,25.8,23.0,30.14,WSW,254,1.0,5.0,89,0.00,,,0.00,VWS V14.01,2013-12-10 15:15:00,
2013-12-10 10:20:00,25.7,22.9,30.14,WSW,257,0.0,6.0,89,0.00,,,0.00,VWS V14.01,2013-12-10 15:20:00,
2013-12-10 10:25:00,25.8,23.0,30.15,WSW,244,0.0,6.0,89,0.00,,,0.00,VWS V14.01,2013-12-10 15:25:00,
2013-12-10 10:30:00,25.9,23.1,30.15,WSW,247,0.0,2.0,89,0.00,,,0.00,VWS V14.01,2013-12-10 15:30:00,
2013-12-10 10:35:00,26.0,23.2,30.15,WSW,254,2.0,7.0,89,0.00,,,0.00,VWS V14.01,2013-12-10 15:35:00,
2013-12-10 10:40:00,25.7,22.9,30.15,WSW,246,2.0,9.0,89,0.00,,,0.00,VWS V14.01,2013-12-10 15:40:00,
2013-12-10 10:46:00,25.7,22.9,30.15,SW,217,0.0,9.0,89,0.00,,,0.00,VWS V14.01,2013-12-10 15:46:00,
2013-12-10 10:51:00,25.8,22.7,30.15,SW,222,0.0,9.0,88,0.00,,,0.00,VWS V14.01,2013-12-10 15:51:00,
2013-12-10 10:56:00,25.7,22.6,30.15,WNW,286,3.0,9.0,88,0.00,,,0.00,VWS V14.01,2013-12-10 15:56:00,
2013-12-10 11:01:00,25.7,22.4,30.15,WSW,248,0.0,4.0,87,0.00,,,0.00,VWS V14.01,2013-12-10 16:01:00,
2013-12-10 11:06:00,25.9,22.8,30.15,West,276,0.0,4.0,88,0.00,,,0.00,VWS V14.01,2013-12-10 16:06:00,
2013-12-10 11:11:00,26.0,22.9,30.15,WSW,248,2.0,4.0,88,0.00,,,0.00,VWS V14.01,2013-12-10 16:11:00,
2013-12-10 11:16:00,26.1,23.0,30.14,WSW,249,0.0,4.0,88,0.00,,,0.00,VWS V14.01,2013-12-10 16:16:00,
2013-12-10 11:21:00,26.3,23.2,30.14,SSW,205,0.0,4.0,88,0.00,,,0.00,VWS V14.01,2013-12-10 16:21:00,
2013-12-10 11:26:00,26.6,23.5,30.14,SSW,205,0.0,4.0,88,0.00,,,0.00,VWS V14.01,2013-12-10 16:26:00,
2013-12-10 11:31:00,26.7,23.6,30.14,SSW,208,0.0,0.0,88,0.00,,,0.00,VWS V14.01,2013-12-10 16:31:00,
2013-12-10 11:36:00,26.7,23.4,30.14,WSW,240,0.0,3.0,87,0.00,,,0.00,VWS V14.01,2013-12-10 16:36:00,
2013-12-10 11:41:00,26.8,23.5,30.15,SW,224,0.0,4.0,87,0.00,,,0.00,VWS V14.01,2013-12-10 16:41:00,
2013-12-10 11:46:00,26.9,23.3,30.14,South,180,2.0,4.0,86,0.00,,,0.00,VWS V14.01,2013-12-10 16:46:00,
2013-12-10 11:51:00,27.2,23.9,30.14,SW,220,3.0,6.0,87,0.00,,,0.00,VWS V14.01,2013-12-10 16:51:00,
2013-12-10 11:56:00,27.5,23.6,30.14,SW,227,1.0,7.0,85,0.00,,,0.00,VWS V14.01,2013-12-10 16:56:00,
2013-12-10 12:02:00,27.8,23.6,30.14,WSW,240,5.0,5.0,84,0.00,,,0.00,VWS V14.01,2013-12-10 17:02:00,
2013-12-10 12:07:00,27.8,23.3,30.14,WSW,257,2.0,7.0,83,0.00,,,0.00,VWS V14.01,2013-12-10 17:07:00,
2013-12-10 12:12:00,27.9,23.1,30.14,SW,219,6.0,10.0,82,0.00,,,0.00,VWS V14.01,2013-12-10 17:12:00,
2013-12-10 12:17:00,28.2,23.4,30.14,WSW,240,5.0,10.0,82,0.00,,,0.00,VWS V14.01,2013-12-10 17:17:00,
2013-12-10 12:22:00,28.0,22.6,30.14,West,270,9.0,10.0,80,0.00,,,0.00,VWS V14.01,2013-12-10 17:22:00,
2013-12-10 12:27:00,27.7,22.4,30.14,WSW,244,0.0,11.0,80,0.00,,,0.00,VWS V14.01,2013-12-10 17:27:00,
2013-12-10 12:32:00,27.8,22.7,30.14,West,281,10.0,10.0,81,0.00,,,0.00,VWS V14.01,2013-12-10 17:32:00,
2013-12-10 12:37:00,27.7,22.4,30.13,SSW,213,0.0,10.0,80,0.00,,,0.00,VWS V14.01,2013-12-10 17:37:00,
2013-12-10 12:42:00,27.6,22.5,30.13,SSW,198,3.0,10.0,81,0.00,,,0.00,VWS V14.01,2013-12-10 17:42:00,
2013-12-10 12:47:00,27.5,22.5,30.13,South,188,5.0,10.0,81,0.00,,,0.00,VWS V14.01,2013-12-10 17:47:00,
2013-12-10 12:52:00,27.6,23.1,30.13,SW,234,4.0,10.0,83,0.00,,,0.00,VWS V14.01,2013-12-10 17:52:00,
2013-12-10 12:58:00,27.8,23.3,30.13,SW,218,4.0,10.0,83,0.00,,,0.00,VWS V14.01,2013-12-10 17:58:00,
2013-12-10 13:03:00,28.3,23.5,30.13,South,182,5.0,8.0,82,0.00,,,0.00,VWS V14.01,2013-12-10 18:03:00,
2013-12-10 13:08:00,28.5,22.8,30.13,WSW,245,3.0,11.0,79,0.00,,,0.00,VWS V14.01,2013-12-10 18:08:00,
2013-12-10 13:13:00,28.3,22.3,30.12,SW,223,2.0,11.0,78,0.00,,,0.00,VWS V14.01,2013-12-10 18:13:00,
2013-12-10 13:18:00,28.3,22.3,30.12,WSW,243,5.0,11.0,78,0.00,,,0.00,VWS V14.01,2013-12-10 18:18:00,
2013-12-10 13:23:00,28.2,22.2,30.14,WSW,238,0.0,11.0,78,0.00,,,0.00,VWS V14.01,2013-12-10 18:23:00,
2013-12-10 13:28:00,28.1,21.8,30.14,WSW,237,6.0,11.0,77,0.00,,,0.00,VWS V14.01,2013-12-10 18:28:00,
2013-12-10 13:33:00,28.2,21.9,30.14,SW,234,2.0,9.0,77,0.00,,,0.00,VWS V14.01,2013-12-10 18:33:00,
2013-12-10 13:38:00,28.2,21.6,30.14,WSW,253,6.0,12.0,76,0.00,,,0.00,VWS V14.01,2013-12-10 18:38:00,
2013-12-10 13:43:00,28.3,22.0,30.14,SSW,211,8.0,12.0,77,0.00,,,0.00,VWS V14.01,2013-12-10 18:43:00,
2013-12-10 13:48:00,28.6,22.6,30.14,SW,228,4.0,12.0,78,0.00,,,0.00,VWS V14.01,2013-12-10 18:48:00,
2013-12-10 13:53:00,28.5,21.9,30.14,WSW,245,6.0,12.0,76,0.00,,,0.00,VWS V14.01,2013-12-10 18:53:00,
2013-12-10 13:58:00,28.5,21.9,30.13,SW,233,1.0,12.0,76,0.00,,,0.00,VWS V14.01,2013-12-10 18:58:00,
2013-12-10 14:03:00,28.5,21.9,30.13,SSE,158,1.0,8.0,76,0.00,,,0.00,VWS V14.01,2013-12-10 19:03:00,
2013-12-10 14:08:00,28.9,22.6,30.13,SW,232,4.0,8.0,77,0.00,,,0.00,VWS V14.01,2013-12-10 19:08:00,
2013-12-10 14:13:00,29.1,21.9,30.13,SW,229,8.0,11.0,74,0.00,,,0.00,VWS V14.01,2013-12-10 19:13:00,
2013-12-10 14:19:00,28.6,20.4,30.13,SW,234,4.0,14.0,71,0.00,,,0.00,VWS V14.01,2013-12-10 19:19:00,
2013-12-10 14:24:00,28.7,20.8,30.13,SW,236,5.0,14.0,72,0.00,,,0.00,VWS V14.01,2013-12-10 19:24:00,
2013-12-10 14:29:00,28.8,20.9,30.13,SSW,205,4.0,6.0,72,0.00,,,0.00,VWS V14.01,2013-12-10 19:29:00,
2013-12-10 14:34:00,29.1,20.9,30.13,West,259,7.0,10.0,71,0.00,,,0.00,VWS V14.01,2013-12-10 19:34:00,
2013-12-10 14:39:00,29.4,20.8,30.14,SSW,198,6.0,10.0,70,0.00,,,0.00,VWS V14.01,2013-12-10 19:39:00,
2013-12-10 14:44:00,29.7,20.5,30.14,SW,236,3.0,10.0,68,0.00,,,0.00,VWS V14.01,2013-12-10 19:44:00,
2013-12-10 14:49:00,29.7,20.5,30.14,SW,229,6.0,10.0,68,0.00,,,0.00,VWS V14.01,2013-12-10 19:49:00,
2013-12-10 14:54:00,29.2,19.6,30.14,West,261,7.0,14.0,67,0.00,,,0.00,VWS V14.01,2013-12-10 19:54:00,
2013-12-10 14:59:00,28.9,19.7,30.14,SSW,210,9.0,9.0,68,0.00,,,0.00,VWS V14.01,2013-12-10 19:59:00,
2013-12-10 15:04:00,28.8,18.9,30.14,SW,232,11.0,11.0,66,0.00,,,0.00,VWS V14.01,2013-12-10 20:04:00,
2013-12-10 15:09:00,29.0,18.7,30.14,SSW,207,8.0,16.0,65,0.00,,,0.00,VWS V14.01,2013-12-10 20:09:00,
2013-12-10 15:14:00,29.2,17.8,30.15,West,262,3.0,16.0,62,0.00,,,0.00,VWS V14.01,2013-12-10 20:14:00,
2013-12-10 15:19:00,29.4,18.4,30.14,SW,214,7.0,16.0,63,0.00,,,0.00,VWS V14.01,2013-12-10 20:19:00,
2013-12-10 15:25:00,29.4,18.0,30.14,SW,233,3.0,16.0,62,0.00,,,0.00,VWS V14.01,2013-12-10 20:25:00,
2013-12-10 15:30:00,29.6,18.6,30.14,SW,236,9.0,12.0,63,0.00,,,0.00,VWS V14.01,2013-12-10 20:30:00,
2013-12-10 15:35:00,29.4,17.6,30.14,SW,232,10.0,13.0,61,0.00,,,0.00,VWS V14.01,2013-12-10 20:35:00,
2013-12-10 15:40:00,29.3,17.9,30.13,SW,227,3.0,13.0,62,0.00,,,0.00,VWS V14.01,2013-12-10 20:40:00,
2013-12-10 15:45:00,29.4,17.6,30.14,WSW,243,11.0,13.0,61,0.00,,,0.00,VWS V14.01,2013-12-10 20:45:00,
2013-12-10 15:50:00,29.2,17.1,30.15,SW,220,6.0,13.0,60,0.00,,,0.00,VWS V14.01,2013-12-10 20:50:00,
2013-12-10 15:55:00,29.2,17.4,30.15,SW,227,4.0,13.0,61,0.00,,,0.00,VWS V14.01,2013-12-10 20:55:00,
2013-12-10 16:00:00,29.1,17.3,30.15,South,182,4.0,6.0,61,0.00,,,0.00,VWS V14.01,2013-12-10 21:00:00,
2013-12-10 16:05:00,29.0,17.2,30.15,SW,220,3.0,10.0,61,0.00,,,0.00,VWS V14.01,2013-12-10 21:05:00,
2013-12-10 16:10:00,28.8,17.1,30.15,WSW,255,7.0,12.0,61,0.00,,,0.00,VWS V14.01,2013-12-10 21:10:00,
2013-12-10 16:15:00,28.5,16.4,30.15,SSW,210,6.0,12.0,60,0.00,,,0.00,VWS V14.01,2013-12-10 21:15:00,
2013-12-10 16:20:00,28.4,15.9,30.15,SW,233,7.0,12.0,59,0.00,,,0.00,VWS V14.01,2013-12-10 21:20:00,
2013-12-10 16:25:00,28.3,16.2,30.15,SW,225,7.0,12.0,60,0.00,,,0.00,VWS V14.01,2013-12-10 21:25:00,
2013-12-10 16:30:00,28.2,16.1,30.15,SW,216,1.0,6.0,60,0.00,,,0.00,VWS V14.01,2013-12-10 21:30:00,
2013-12-10 16:35:00,27.9,16.6,30.16,SW,224,2.0,7.0,62,0.00,,,0.00,VWS V14.01,2013-12-10 21:35:00,
2013-12-10 16:41:00,27.8,16.5,30.15,SW,219,7.0,9.0,62,0.00,,,0.00,VWS V14.01,2013-12-10 21:41:00,
2013-12-10 16:46:00,27.7,16.4,30.16,SW,218,3.0,12.0,62,0.00,,,0.00,VWS V14.01,2013-12-10 21:46:00,
2013-12-10 16:51:00,27.4,16.5,30.16,SW,221,2.0,12.0,63,0.00,,,0.00,VWS V14.01,2013-12-10 21:51:00,
2013-12-10 16:56:00,27.3,16.4,30.16,SSW,212,5.0,14.0,63,0.00,,,0.00,VWS V14.01,2013-12-10 21:56:00,
2013-12-10 17:01:00,27.3,16.4,30.17,WSW,251,7.0,7.0,63,0.00,,,0.00,VWS V14.01,2013-12-10 22:01:00,
2013-12-10 17:06:00,27.3,16.0,30.17,SW,215,3.0,13.0,62,0.00,,,0.00,VWS V14.01,2013-12-10 22:06:00,
2013-12-10 17:11:00,27.2,16.6,30.17,SSW,202,6.0,13.0,64,0.00,,,0.00,VWS V14.01,2013-12-10 22:11:00,
2013-12-10 17:16:00,27.0,16.5,30.17,SW,225,4.0,13.0,64,0.00,,,0.00,VWS V14.01,2013-12-10 22:16:00,
2013-12-10 17:21:00,26.9,16.4,30.17,SSW,209,3.0,13.0,64,0.00,,,0.00,VWS V14.01,2013-12-10 22:21:00,
2013-12-10 17:26:00,26.8,16.6,30.17,SW,220,2.0,13.0,65,0.00,,,0.00,VWS V14.01,2013-12-10 22:26:00,
2013-12-10 17:31:00,26.8,16.6,30.17,SSW,197,4.0,8.0,65,0.00,,,0.00,VWS V14.01,2013-12-10 22:31:00,
2013-12-10 17:37:00,26.9,16.7,30.17,SSW,208,4.0,10.0,65,0.00,,,0.00,VWS V14.01,2013-12-10 22:37:00,
2013-12-10 17:42:00,26.9,16.7,30.17,SW,222,3.0,10.0,65,0.00,,,0.00,VWS V14.01,2013-12-10 22:42:00,
2013-12-10 17:47:00,26.9,16.7,30.17,SW,221,5.0,10.0,65,0.00,,,0.00,VWS V14.01,2013-12-10 22:47:00,
2013-12-10 17:52:00,26.8,16.6,30.18,SW,232,6.0,10.0,65,0.00,,,0.00,VWS V14.01,2013-12-10 22:52:00,
2013-12-10 17:57:00,26.8,17.0,30.18,SSW,204,5.0,10.0,66,0.00,,,0.00,VWS V14.01,2013-12-10 22:57:00,
2013-12-10 18:02:00,27.0,16.8,30.18,SW,219,3.0,9.0,65,0.00,,,0.00,VWS V14.01,2013-12-10 23:02:00,
2013-12-10 18:07:00,26.9,16.7,30.18,SW,221,4.0,9.0,65,0.00,,,0.00,VWS V14.01,2013-12-10 23:07:00,
2013-12-10 18:12:00,26.8,17.0,30.18,SSW,212,1.0,9.0,66,0.00,,,0.00,VWS V14.01,2013-12-10 23:12:00,
2013-12-10 18:17:00,26.9,17.1,30.18,SSW,198,3.0,13.0,66,0.00,,,0.00,VWS V14.01,2013-12-10 23:17:00,
2013-12-10 18:22:00,26.8,17.0,30.18,South,188,5.0,13.0,66,0.00,,,0.00,VWS V14.01,2013-12-10 23:22:00,
2013-12-10 18:27:00,26.7,16.9,30.18,SSW,198,4.0,13.0,66,0.00,,,0.00,VWS V14.01,2013-12-10 23:27:00,
2013-12-10 18:32:00,26.8,17.0,30.19,SSW,203,7.0,12.0,66,0.00,,,0.00,VWS V14.01,2013-12-10 23:32:00,
2013-12-10 18:37:00,27.1,16.9,30.19,SSW,203,4.0,13.0,65,0.00,,,0.00,VWS V14.01,2013-12-10 23:37:00,
2013-12-10 18:42:00,27.1,16.9,30.20,SW,225,2.0,13.0,65,0.00,,,0.00,VWS V14.01,2013-12-10 23:42:00,
2013-12-10 18:48:00,27.1,17.3,30.20,SW,226,5.0,13.0,66,0.00,,,0.00,VWS V14.01,2013-12-10 23:48:00,
2013-12-10 18:53:00,27.0,17.2,30.20,SW,218,5.0,13.0,66,0.00,,,0.00,VWS V14.01,2013-12-10 23:53:00,
2013-12-10 18:58:00,27.0,17.2,30.21,SW,229,8.0,13.0,66,0.00,,,0.00,VWS V14.01,2013-12-10 23:58:00,
2013-12-10 19:03:00,27.2,17.4,30.21,SW,229,4.0,10.0,66,0.00,,,0.00,VWS V14.01,2013-12-11 00:03:00,
2013-12-10 19:08:00,27.1,17.3,30.21,SW,215,7.0,10.0,66,0.00,,,0.00,VWS V14.01,2013-12-11 00:08:00,
2013-12-10 19:13:00,27.1,17.3,30.22,SSW,205,3.0,10.0,66,0.00,,,0.00,VWS V14.01,2013-12-11 00:13:00,
2013-12-10 19:18:00,27.1,17.3,30.22,WSW,238,5.0,10.0,66,0.00,,,0.00,VWS V14.01,2013-12-11 00:18:00,
2013-12-10 19:23:00,27.2,17.4,30.23,SW,218,3.0,10.0,66,0.00,,,0.00,VWS V14.01,2013-12-11 00:23:00,
2013-12-10 19:28:00,27.2,17.4,30.23,WSW,244,3.0,10.0,66,0.00,,,0.00,VWS V14.01,2013-12-11 00:28:00,
2013-12-10 19:33:00,27.4,17.2,30.23,SW,221,3.0,11.0,65,0.00,,,0.00,VWS V14.01,2013-12-11 00:33:00,
2013-12-10 19:38:00,27.3,17.1,30.24,SW,221,3.0,11.0,65,0.00,,,0.00,VWS V14.01,2013-12-11 00:38:00,
2013-12-10 19:43:00,27.2,17.4,30.25,WSW,237,6.0,11.0,66,0.00,,,0.00,VWS V14.01,2013-12-11 00:43:00,
2013-12-10 19:48:00,27.1,17.3,30.25,SW,216,3.0,11.0,66,0.00,,,0.00,VWS V14.01,2013-12-11 00:48:00,
2013-12-10 19:53:00,27.1,17.3,30.25,SW,229,2.0,11.0,66,0.00,,,0.00,VWS V14.01,2013-12-11 00:53:00,
2013-12-10 19:59:00,27.0,17.2,30.25,SW,222,5.0,5.0,66,0.00,,,0.00,VWS V14.01,2013-12-11 00:59:00,
2013-12-10 20:04:00,27.2,17.0,30.25,WSW,241,2.0,16.0,65,0.00,,,0.00,VWS V14.01,2013-12-11 01:04:00,
2013-12-10 20:09:00,27.2,17.0,30.26,SW,228,8.0,16.0,65,0.00,,,0.00,VWS V14.01,2013-12-11 01:09:00,
2013-12-10 20:14:00,27.1,16.9,30.26,SW,225,5.0,16.0,65,0.00,,,0.00,VWS V14.01,2013-12-11 01:14:00,
2013-12-10 20:19:00,27.1,16.9,30.26,SW,217,2.0,16.0,65,0.00,,,0.00,VWS V14.01,2013-12-11 01:19:00,
2013-12-10 20:24:00,27.0,16.8,30.27,SW,217,3.0,16.0,65,0.00,,,0.00,VWS V14.01,2013-12-11 01:24:00,
2013-12-10 20:29:00,26.9,17.1,30.27,SW,223,5.0,5.0,66,0.00,,,0.00,VWS V14.01,2013-12-11 01:29:00,
2013-12-10 20:34:00,27.0,16.8,30.27,WSW,238,7.0,9.0,65,0.00,,,0.00,VWS V14.01,2013-12-11 01:34:00,
2013-12-10 20:39:00,27.0,16.8,30.27,SW,226,4.0,9.0,65,0.00,,,0.00,VWS V14.01,2013-12-11 01:39:00,
2013-12-10 20:44:00,27.0,16.5,30.27,SW,227,2.0,9.0,64,0.00,,,0.00,VWS V14.01,2013-12-11 01:44:00,
2013-12-10 20:49:00,26.9,16.4,30.27,SSW,199,5.0,9.0,64,0.00,,,0.00,VWS V14.01,2013-12-11 01:49:00,
2013-12-10 20:55:00,26.8,15.9,30.28,SW,221,7.0,14.0,63,0.00,,,0.00,VWS V14.01,2013-12-11 01:55:00,
2013-12-10 21:00:00,26.8,16.3,30.28,SW,220,5.0,5.0,64,0.00,,,0.00,VWS V14.01,2013-12-11 02:00:00,
2013-12-10 21:05:00,26.6,16.1,30.28,SW,231,3.0,8.0,64,0.00,,,0.00,VWS V14.01,2013-12-11 02:05:00,
2013-12-10 21:10:00,26.5,16.0,30.28,SSW,193,6.0,8.0,64,0.00,,,0.00,VWS V14.01,2013-12-11 02:10:00,
2013-12-10 21:15:00,26.4,15.9,30.28,WSW,241,5.0,8.0,64,0.00,,,0.00,VWS V14.01,2013-12-11 02:15:00,
2013-12-10 21:20:00,26.4,15.9,30.28,West,275,1.0,8.0,64,0.00,,,0.00,VWS V14.01,2013-12-11 02:20:00,
2013-12-10 21:25:00,26.3,15.4,30.29,SW,224,5.0,8.0,63,0.00,,,0.00,VWS V14.01,2013-12-11 02:25:00,
2013-12-10 21:30:00,26.4,15.5,30.30,WNW,300,4.0,12.0,63,0.00,,,0.00,VWS V14.01,2013-12-11 02:30:00,
2013-12-10 21:35:00,26.3,15.4,30.30,West,260,0.0,12.0,63,0.00,,,0.00,VWS V14.01,2013-12-11 02:35:00,
2013-12-10 21:40:00,26.2,15.3,30.30,SW,226,2.0,12.0,63,0.00,,,0.00,VWS V14.01,2013-12-11 02:40:00,
2013-12-10 21:45:00,26.1,15.2,30.30,WSW,239,5.0,12.0,63,0.00,,,0.00,VWS V14.01,2013-12-11 02:45:00,
2013-12-10 21:50:00,26.0,15.5,30.30,SW,234,0.0,12.0,64,0.00,,,0.00,VWS V14.01,2013-12-11 02:50:00,
2013-12-10 21:55:00,25.7,15.6,30.30,WSW,249,3.0,12.0,65,0.00,,,0.00,VWS V14.01,2013-12-11 02:55:00,
2013-12-10 22:01:00,25.5,15.4,30.31,WSW,241,0.0,3.0,65,0.00,,,0.00,VWS V14.01,2013-12-11 03:01:00,
2013-12-10 22:06:00,25.4,15.3,30.31,WSW,238,4.0,10.0,65,0.00,,,0.00,VWS V14.01,2013-12-11 03:06:00,
2013-12-10 22:11:00,25.7,15.2,30.31,SW,231,4.0,10.0,64,0.00,,,0.00,VWS V14.01,2013-12-11 03:11:00,
2013-12-10 22:16:00,25.7,15.2,30.31,SW,221,2.0,10.0,64,0.00,,,0.00,VWS V14.01,2013-12-11 03:16:00,
2013-12-10 22:21:00,25.7,15.2,30.31,SW,221,4.0,10.0,64,0.00,,,0.00,VWS V14.01,2013-12-11 03:21:00,
2013-12-10 22:26:00,25.4,14.9,30.32,West,262,0.0,10.0,64,0.00,,,0.00,VWS V14.01,2013-12-11 03:26:00,
2013-12-10 22:31:00,25.3,14.8,30.32,SW,222,3.0,5.0,64,0.00,,,0.00,VWS V14.01,2013-12-11 03:31:00,
2013-12-10 22:36:00,25.3,14.8,30.32,WSW,255,0.0,7.0,64,0.00,,,0.00,VWS V14.01,2013-12-11 03:36:00,
2013-12-10 22:41:00,25.1,15.0,30.32,SW,224,2.0,7.0,65,0.00,,,0.00,VWS V14.01,2013-12-11 03:41:00,
2013-12-10 22:46:00,25.0,14.9,30.32,SW,235,4.0,7.0,65,0.00,,,0.00,VWS V14.01,2013-12-11 03:46:00,
2013-12-10 22:51:00,25.1,15.0,30.32,SW,229,0.0,10.0,65,0.00,,,0.00,VWS V14.01,2013-12-11 03:51:00,
2013-12-10 22:56:00,25.3,14.8,30.31,SW,224,0.0,10.0,64,0.00,,,0.00,VWS V14.01,2013-12-11 03:56:00,
2013-12-10 23:01:00,25.2,15.1,30.32,SW,236,2.0,6.0,65,0.00,,,0.00,VWS V14.01,2013-12-11 04:01:00,
2013-12-10 23:07:00,25.0,14.9,30.32,SW,215,0.0,6.0,65,0.00,,,0.00,VWS V14.01,2013-12-11 04:07:00,
2013-12-10 23:12:00,24.8,15.1,30.32,SW,215,0.0,6.0,66,0.00,,,0.00,VWS V14.01,2013-12-11 04:12:00,
2013-12-10 23:17:00,24.6,14.9,30.32,SW,215,0.0,6.0,66,0.00,,,0.00,VWS V14.01,2013-12-11 04:17:00,
2013-12-10 23:22:00,24.4,14.7,30.32,South,190,5.0,6.0,66,0.00,,,0.00,VWS V14.01,2013-12-11 04:22:00,
2013-12-10 23:27:00,24.3,14.9,30.32,SW,232,0.0,6.0,67,0.00,,,0.00,VWS V14.01,2013-12-11 04:27:00,
2013-12-10 23:32:00,24.4,15.0,30.32,SW,232,3.0,5.0,67,0.00,,,0.00,VWS V14.01,2013-12-11 04:32:00,
2013-12-10 23:37:00,24.4,15.0,30.33,SW,225,0.0,6.0,67,0.00,,,0.00,VWS V14.01,2013-12-11 04:37:00,
2013-12-10 23:42:00,24.4,15.0,30.33,SW,232,0.0,6.0,67,0.00,,,0.00,VWS V14.01,2013-12-11 04:42:00,
2013-12-10 23:47:00,24.3,14.9,30.34,SW,219,0.0,6.0,67,0.00,,,0.00,VWS V14.01,2013-12-11 04:47:00,
2013-12-10 23:52:00,24.3,14.9,30.34,SW,223,2.0,6.0,67,0.00,,,0.00,VWS V14.01,2013-12-11 04:52:00,
2013-12-10 23:57:00,24.2,14.8,30.35,SW,224,0.0,6.0,67,0.00,,,0.00,VWS V14.01,2013-12-11 04:57:00,